createdAt,value
2023-04-18T05:01:14.980Z,27.80
2023-04-18T05:02:14.803Z,27.75
2023-04-18T05:03:14.824Z,27.83
2023-04-18T05:04:15.059Z,27.76
2023-04-18T05:05:14.653Z,27.82
2023-04-18T05:06:14.701Z,27.73
2023-04-18T05:07:14.658Z,27.70
2023-04-18T05:08:14.660Z,27.71
2023-04-18T05:09:14.616Z,27.66
2023-04-18T05:10:14.654Z,27.64
2023-04-18T05:11:14.624Z,27.59
2023-04-18T05:12:14.603Z,27.57
2023-04-18T05:13:14.611Z,27.54
2023-04-18T05:14:14.840Z,27.48
2023-04-18T05:15:14.584Z,27.51
2023-04-18T05:16:14.630Z,27.44
2023-04-18T05:17:14.581Z,27.42
2023-04-18T05:18:14.653Z,27.41
2023-04-18T05:19:14.681Z,27.31
2023-04-18T05:20:14.719Z,27.25
2023-04-18T05:21:14.788Z,27.18
2023-04-18T05:22:14.950Z,27.18
2023-04-18T05:23:14.871Z,27.24
2023-04-18T05:24:15.506Z,27.27
2023-04-18T05:25:14.969Z,27.05
2023-04-18T05:26:14.948Z,26.85
2023-04-18T05:27:17.163Z,26.72
2023-04-18T05:28:14.924Z,26.54
2023-04-18T05:29:14.944Z,26.43
2023-04-18T05:30:14.981Z,26.32
2023-04-18T05:31:15.035Z,26.28
2023-04-18T05:32:14.913Z,26.17
2023-04-18T05:33:14.981Z,26.17
2023-04-18T05:34:15.010Z,26.13
2023-04-18T05:35:15.210Z,26.20
2023-04-18T05:36:14.970Z,26.13
2023-04-18T05:37:15.090Z,26.21
2023-04-18T05:38:15.109Z,26.44
2023-04-18T05:39:14.886Z,26.50
2023-04-18T05:40:15.887Z,26.54
2023-04-18T05:41:14.950Z,26.47
2023-04-18T05:42:14.848Z,26.50
2023-04-18T05:43:14.931Z,26.52
2023-04-18T05:44:14.878Z,26.51
2023-04-18T05:45:14.846Z,26.39
2023-04-18T05:46:15.030Z,26.44
2023-04-18T05:47:14.877Z,26.21
2023-04-18T05:48:14.843Z,26.41
2023-04-18T05:49:14.888Z,26.67
2023-04-18T05:50:14.854Z,26.95
2023-04-18T05:51:14.954Z,27.11
2023-04-18T05:52:15.056Z,27.00
2023-04-18T05:53:14.875Z,26.93
2023-04-18T05:54:14.900Z,27.57
2023-04-18T05:55:14.823Z,27.34
2023-04-18T05:56:14.902Z,27.26
2023-04-18T05:57:14.776Z,27.27
2023-04-18T05:58:14.789Z,27.76
2023-04-18T05:59:14.757Z,27.49
2023-04-18T06:00:14.756Z,27.84
2023-04-18T06:01:15.472Z,27.57
2023-04-18T06:02:15.154Z,27.64
2023-04-18T06:03:14.942Z,27.77
2023-04-18T06:04:15.072Z,27.72
2023-04-18T06:05:14.911Z,27.65
2023-04-18T06:06:14.855Z,27.74
2023-04-18T06:07:15.610Z,27.69
2023-04-18T06:08:14.730Z,27.82
2023-04-18T06:09:23.144Z,27.85
2023-04-18T06:10:14.740Z,27.82
2023-04-18T06:11:14.829Z,27.88
2023-04-18T06:12:14.830Z,27.97
2023-04-18T06:13:14.904Z,27.96
2023-04-18T06:14:15.184Z,27.96
2023-04-18T06:15:14.935Z,28.01
2023-04-18T06:16:15.001Z,27.96
2023-04-18T06:17:14.953Z,27.99
2023-04-18T06:18:14.993Z,28.04
2023-04-18T06:19:15.008Z,27.96
2023-04-18T06:20:15.011Z,27.98
2023-04-18T06:21:15.029Z,27.97
2023-04-18T06:22:15.015Z,27.96
2023-04-18T06:23:14.972Z,28.25
2023-04-18T06:24:15.210Z,28.01
2023-04-18T06:25:14.966Z,27.93
2023-04-18T06:26:14.988Z,27.96
2023-04-18T06:27:27.825Z,27.98
2023-04-18T06:28:15.985Z,27.96
2023-04-18T06:29:14.952Z,27.98
2023-04-18T06:30:14.984Z,27.95
2023-04-18T06:31:15.146Z,27.92
2023-04-18T06:32:14.956Z,27.95
2023-04-18T06:33:14.916Z,27.87
2023-04-18T06:34:15.260Z,27.88
2023-04-18T06:35:14.906Z,27.96
2023-04-18T06:36:14.924Z,28.00
2023-04-18T06:37:14.969Z,28.00
2023-04-18T06:38:14.903Z,27.98
2023-04-18T06:39:14.880Z,27.93
2023-04-18T06:40:14.866Z,28.00
2023-04-18T06:41:15.443Z,27.96
2023-04-18T06:42:14.886Z,28.00
2023-04-18T06:43:14.868Z,28.04
2023-04-18T06:44:14.873Z,27.98
2023-04-18T06:45:14.833Z,28.04
2023-04-18T06:46:14.921Z,28.03
2023-04-18T06:47:14.854Z,28.06
2023-04-18T06:48:14.868Z,28.03
2023-04-18T06:49:14.808Z,27.99
2023-04-18T06:50:14.845Z,28.00
2023-04-18T06:51:14.798Z,28.03
2023-04-18T06:52:14.806Z,28.01
2023-04-18T06:53:14.789Z,28.03
2023-04-18T06:54:14.865Z,28.05
2023-04-18T06:55:14.793Z,28.06
2023-04-18T06:56:14.737Z,27.99
2023-04-18T06:57:14.779Z,27.96
2023-04-18T06:58:14.791Z,27.98
2023-04-18T06:59:14.944Z,28.03
2023-04-18T07:00:14.893Z,28.05
2023-04-18T07:01:14.994Z,28.01
2023-04-18T07:02:14.982Z,28.08
2023-04-18T07:03:15.149Z,28.07
2023-04-18T07:04:15.642Z,28.05
2023-04-18T07:05:15.054Z,28.14
2023-04-18T07:06:15.086Z,28.19
2023-04-18T07:07:15.053Z,28.19
2023-04-18T07:08:15.099Z,28.15
2023-04-18T07:09:15.090Z,28.05
2023-04-18T07:10:15.098Z,28.15
2023-04-18T07:11:15.209Z,28.27
2023-04-18T07:12:15.116Z,28.05
2023-04-18T07:13:15.172Z,28.05
2023-04-18T07:14:15.261Z,28.14
2023-04-18T07:15:15.154Z,28.07
2023-04-18T07:16:15.181Z,28.04
2023-04-18T07:17:15.188Z,28.14
2023-04-18T07:18:23.284Z,27.97
2023-04-18T07:19:16.188Z,28.05
2023-04-18T07:20:15.252Z,28.08
2023-04-18T07:21:15.122Z,28.11
2023-04-18T07:22:15.150Z,28.52
2023-04-18T07:23:15.126Z,28.42
2023-04-18T07:24:15.172Z,28.98
2023-04-18T07:25:15.308Z,28.41
2023-04-18T07:26:15.159Z,28.50
2023-04-18T07:27:15.104Z,28.73
2023-04-18T07:28:15.124Z,29.42
2023-04-18T07:29:15.074Z,28.75
2023-04-18T07:30:15.106Z,28.61
2023-04-18T07:31:15.117Z,28.40
2023-04-18T07:32:15.146Z,28.59
2023-04-18T07:33:15.073Z,28.82
2023-04-18T07:34:15.399Z,28.54
2023-04-18T07:35:15.193Z,28.68
2023-04-18T07:36:15.019Z,28.44
2023-04-18T07:37:15.257Z,28.38
2023-04-18T07:38:15.300Z,28.90
2023-04-18T07:39:15.177Z,28.54
2023-04-18T07:40:15.307Z,28.47
2023-04-18T07:41:15.273Z,28.24
2023-04-18T07:42:15.346Z,28.09
2023-04-18T07:43:15.329Z,28.05
2023-04-18T07:44:15.407Z,28.09
2023-04-18T07:45:15.340Z,28.46
2023-04-18T07:46:15.376Z,29.32
2023-04-18T07:47:15.333Z,28.77
2023-04-18T07:48:15.378Z,28.97
2023-04-18T07:49:15.564Z,29.83
2023-04-18T07:50:15.384Z,29.64
2023-04-18T07:51:15.355Z,28.91
2023-04-18T07:52:15.375Z,29.10
2023-04-18T07:53:15.321Z,29.14
2023-04-18T07:54:15.429Z,29.67
2023-04-18T07:55:15.373Z,29.98
2023-04-18T07:56:15.469Z,29.74
2023-04-18T07:57:15.532Z,29.49
2023-04-18T07:58:15.588Z,29.49
2023-04-18T07:59:15.937Z,29.86
2023-04-18T08:00:15.674Z,29.89
2023-04-18T08:01:15.699Z,29.85
2023-04-18T08:02:15.821Z,30.15
2023-04-18T08:03:16.154Z,30.19
2023-04-18T08:04:16.000Z,30.32
2023-04-18T08:05:15.989Z,30.05
2023-04-18T08:06:16.018Z,30.32
2023-04-18T08:07:16.091Z,29.97
2023-04-18T08:08:16.164Z,30.35
2023-04-18T08:09:16.323Z,30.22
2023-04-18T08:10:16.266Z,30.36
2023-04-18T08:11:16.297Z,30.28
2023-04-18T08:12:16.367Z,30.34
2023-04-18T08:13:16.483Z,30.25
2023-04-18T08:14:16.510Z,30.14
2023-04-18T08:15:16.521Z,29.89
2023-04-18T08:16:17.645Z,30.14
2023-04-18T08:17:16.610Z,29.39
2023-04-18T08:18:16.701Z,29.36
2023-04-18T08:19:16.751Z,29.21
2023-04-18T08:20:16.771Z,28.74
2023-04-18T08:21:16.839Z,29.05
2023-04-18T08:22:16.859Z,29.83
2023-04-18T08:23:16.929Z,30.13
2023-04-18T08:24:16.948Z,29.75
2023-04-18T08:25:17.030Z,29.19
2023-04-18T08:26:17.303Z,29.46
2023-04-18T08:27:17.163Z,30.19
2023-04-18T08:28:17.230Z,28.94
2023-04-18T08:29:17.412Z,29.31
2023-04-18T08:30:17.272Z,29.06
2023-04-18T08:31:17.380Z,29.37
2023-04-18T08:32:17.464Z,29.49
2023-04-18T08:33:17.442Z,29.65
2023-04-18T08:34:17.466Z,29.91
2023-04-18T08:35:17.513Z,30.07
2023-04-18T08:36:17.600Z,30.35
2023-04-18T08:37:17.571Z,30.55
2023-04-18T08:38:17.614Z,30.64
2023-04-18T08:39:17.630Z,30.80
2023-04-18T08:40:27.229Z,30.96
2023-04-18T08:41:17.755Z,31.26
2023-04-18T08:42:17.643Z,31.25
2023-04-18T08:43:17.657Z,31.50
2023-04-18T08:44:18.473Z,31.91
2023-04-18T08:45:18.681Z,32.05
2023-04-18T08:46:17.669Z,32.15
2023-04-18T08:47:17.596Z,32.21
2023-04-18T08:48:17.626Z,32.34
2023-04-18T08:49:17.617Z,32.42
2023-04-18T08:50:17.615Z,32.50
2023-04-18T08:51:17.564Z,32.67
2023-04-18T08:52:17.639Z,32.80
2023-04-18T08:53:17.559Z,32.84
2023-04-18T08:54:17.601Z,32.89
2023-04-18T08:55:17.703Z,32.96
2023-04-18T08:56:17.576Z,31.95
2023-04-18T08:57:17.568Z,28.83
2023-04-18T08:58:17.558Z,27.90
2023-04-18T08:59:17.581Z,27.96
2023-04-18T09:00:17.597Z,27.72
2023-04-18T09:01:17.596Z,27.96
2023-04-18T09:02:17.622Z,28.27
2023-04-18T09:03:17.590Z,28.20
2023-04-18T09:04:17.570Z,28.49
2023-04-18T09:05:17.610Z,28.95
2023-04-18T09:06:17.600Z,28.47
2023-04-18T09:07:17.512Z,28.75
2023-04-18T09:08:17.462Z,29.00
2023-04-18T09:09:17.498Z,29.10
2023-04-18T09:10:17.473Z,29.34
2023-04-18T09:11:17.484Z,29.28
2023-04-18T09:12:17.420Z,29.64
2023-04-18T09:13:17.476Z,29.96
2023-04-18T09:14:17.473Z,30.18
2023-04-18T09:15:17.402Z,30.18
2023-04-18T09:16:17.482Z,30.24
2023-04-18T09:17:17.412Z,30.31
2023-04-18T09:18:17.442Z,30.30
2023-04-18T09:19:17.704Z,30.35
2023-04-18T09:20:17.438Z,30.43
2023-04-18T09:21:17.423Z,30.38
2023-04-18T09:22:17.390Z,30.39
2023-04-18T09:23:17.607Z,30.39
2023-04-18T09:24:17.360Z,30.35
2023-04-18T09:25:17.363Z,30.42
2023-04-18T09:26:17.360Z,30.42
2023-04-18T09:27:17.365Z,30.42
2023-04-18T09:28:17.406Z,30.49
2023-04-18T09:29:17.447Z,30.53
2023-04-18T09:30:17.482Z,30.70
2023-04-18T09:31:17.541Z,31.11
2023-04-18T09:32:17.577Z,31.01
2023-04-18T09:33:17.636Z,30.77
2023-04-18T09:34:17.670Z,30.89
2023-04-18T09:35:17.684Z,31.00
2023-04-18T09:36:17.710Z,31.12
2023-04-18T09:37:17.756Z,31.19
2023-04-18T09:38:17.841Z,31.16
2023-04-18T09:39:17.823Z,30.98
2023-04-18T09:40:17.833Z,31.10
2023-04-18T09:41:20.072Z,31.26
2023-04-18T09:42:17.884Z,31.41
2023-04-18T09:43:17.881Z,31.39
2023-04-18T09:44:17.981Z,31.45
2023-04-18T09:45:17.824Z,31.52
2023-04-18T09:46:17.970Z,31.49
2023-04-18T09:47:17.872Z,31.50
2023-04-18T09:48:17.809Z,31.59
2023-04-18T09:49:18.129Z,31.61
2023-04-18T09:50:17.798Z,31.65
2023-04-18T09:51:17.883Z,31.63
2023-04-18T09:52:17.814Z,31.66
2023-04-18T09:53:20.155Z,31.74
2023-04-18T09:54:17.773Z,31.76
2023-04-18T09:55:17.796Z,31.73
2023-04-18T09:56:17.743Z,31.75
2023-04-18T09:57:17.845Z,31.79
2023-04-18T09:58:17.740Z,31.68
2023-04-18T09:59:18.675Z,31.66
2023-04-18T10:00:17.750Z,31.66
2023-04-18T10:01:17.819Z,31.64
2023-04-18T10:02:17.730Z,31.68
2023-04-18T10:03:17.870Z,31.57
2023-04-18T10:04:17.916Z,31.60
2023-04-18T10:05:20.763Z,31.62
2023-04-18T10:06:17.752Z,31.57
2023-04-18T10:07:17.655Z,31.51
2023-04-18T10:08:17.673Z,30.90
2023-04-18T10:09:17.639Z,30.33
2023-04-18T10:10:17.658Z,30.61
2023-04-18T10:11:19.215Z,30.73
2023-04-18T10:12:17.736Z,30.84
2023-04-18T10:13:17.713Z,30.53
2023-04-18T10:14:17.897Z,30.90
2023-04-18T10:15:17.765Z,30.78
2023-04-18T10:16:17.790Z,30.74
2023-04-18T10:17:17.770Z,30.96
2023-04-18T10:18:17.845Z,31.05
2023-04-18T10:19:17.800Z,29.87
2023-04-18T10:20:17.785Z,28.85
2023-04-18T10:21:18.020Z,28.92
2023-04-18T10:22:17.924Z,28.49
2023-04-18T10:23:17.906Z,28.28
2023-04-18T10:24:17.967Z,28.29
2023-04-18T10:25:17.989Z,28.23
2023-04-18T10:26:18.006Z,28.20
2023-04-18T10:27:18.069Z,28.26
2023-04-18T10:28:18.101Z,28.06
2023-04-18T10:29:18.133Z,27.82
2023-04-18T10:30:18.161Z,27.68
2023-04-18T10:31:18.250Z,27.76
2023-04-18T10:32:18.281Z,27.70
2023-04-18T10:33:27.983Z,27.88
2023-04-18T10:34:19.374Z,27.67
2023-04-18T10:35:18.278Z,27.67
2023-04-18T10:36:18.293Z,27.22
2023-04-18T10:37:18.277Z,27.10
2023-04-18T10:38:18.303Z,26.90
2023-04-18T10:39:18.271Z,26.25
2023-04-18T10:40:18.229Z,25.92
2023-04-18T10:41:18.243Z,26.30
2023-04-18T10:42:18.279Z,26.18
2023-04-18T10:43:18.318Z,26.12
2023-04-18T10:44:18.395Z,26.21
2023-04-18T10:45:18.241Z,26.26
2023-04-18T10:46:31.088Z,26.44
2023-04-18T10:47:19.291Z,26.43
2023-04-18T10:48:18.235Z,26.43
2023-04-18T10:49:18.236Z,26.45
2023-04-18T10:50:18.232Z,26.42
2023-04-18T10:51:18.176Z,26.52
2023-04-18T10:52:18.204Z,27.28
2023-04-18T10:53:18.320Z,27.52
2023-04-18T10:54:18.189Z,27.61
2023-04-18T10:55:18.259Z,28.12
2023-04-18T10:56:18.169Z,28.56
2023-04-18T10:57:18.273Z,28.99
2023-04-18T10:58:18.134Z,29.16
2023-04-18T10:59:18.165Z,29.15
2023-04-18T11:00:18.100Z,29.05
2023-04-18T11:01:18.150Z,29.78
2023-04-18T11:02:18.169Z,29.32
2023-04-18T11:03:18.250Z,28.43
2023-04-18T11:04:18.407Z,28.43
2023-04-18T11:05:18.219Z,28.20
2023-04-18T11:06:18.328Z,27.94
2023-04-18T11:07:18.312Z,28.23
2023-04-18T11:08:18.461Z,27.96
2023-04-18T11:09:18.486Z,27.84
2023-04-18T11:10:18.510Z,27.85
2023-04-18T11:11:18.595Z,27.82
2023-04-18T11:12:18.555Z,28.13
2023-04-18T11:13:18.638Z,27.93
2023-04-18T11:14:18.711Z,27.97
2023-04-18T11:15:18.746Z,27.60
2023-04-18T11:16:18.857Z,27.85
2023-04-18T11:17:18.821Z,27.74
2023-04-18T11:18:18.906Z,27.91
2023-04-18T11:19:18.921Z,27.87
2023-04-18T11:20:19.015Z,27.78
2023-04-18T11:21:19.070Z,27.97
2023-04-18T11:22:19.082Z,27.45
2023-04-18T11:23:19.125Z,27.35
2023-04-18T11:24:19.202Z,27.75
2023-04-18T11:25:19.274Z,27.88
2023-04-18T11:26:19.343Z,28.19
2023-04-18T11:27:19.411Z,28.08
2023-04-18T11:28:19.478Z,28.04
2023-04-18T11:29:19.504Z,28.03
2023-04-18T11:30:19.552Z,28.31
2023-04-18T11:31:19.593Z,27.80
2023-04-18T11:32:19.709Z,27.74
2023-04-18T11:33:19.952Z,27.71
2023-04-18T11:34:19.748Z,27.81
2023-04-18T11:35:19.816Z,27.67
2023-04-18T11:36:19.955Z,28.01
2023-04-18T11:37:19.905Z,28.21
2023-04-18T11:38:20.833Z,27.78
2023-04-18T11:39:20.007Z,28.01
2023-04-18T11:40:20.180Z,27.44
2023-04-18T11:41:20.202Z,27.57
2023-04-18T11:42:20.147Z,27.50
2023-04-18T11:43:20.225Z,27.44
2023-04-18T11:44:20.250Z,27.49
2023-04-18T11:45:20.360Z,27.50
2023-04-18T11:46:20.465Z,27.46
2023-04-18T11:47:20.500Z,27.85
2023-04-18T11:48:20.460Z,27.51
2023-04-18T11:49:20.532Z,27.31
2023-04-18T11:50:20.562Z,27.56
2023-04-18T11:51:20.632Z,27.46
2023-04-18T11:52:20.710Z,27.46
2023-04-18T11:53:20.704Z,27.52
2023-04-18T11:54:20.801Z,27.62
2023-04-18T11:55:20.820Z,27.33
2023-04-18T11:56:20.875Z,27.30
2023-04-18T11:57:20.898Z,27.39
2023-04-18T11:58:20.971Z,27.39
2023-04-18T11:59:20.975Z,27.34
2023-04-18T12:00:21.064Z,27.26
2023-04-18T12:01:21.057Z,27.27
2023-04-18T12:02:21.260Z,27.27
2023-04-18T12:03:21.427Z,27.16
2023-04-18T12:04:21.524Z,27.14
2023-04-18T12:05:21.622Z,27.15
2023-04-18T12:06:21.332Z,27.03
2023-04-18T12:07:21.347Z,27.02
2023-04-18T12:08:21.400Z,27.02
2023-04-18T12:09:21.536Z,26.90
2023-04-18T12:10:21.515Z,26.76
2023-04-18T12:11:21.589Z,26.78
2023-04-18T12:12:21.603Z,26.85
2023-04-18T12:13:21.655Z,26.96
2023-04-18T12:14:21.848Z,26.53
2023-04-18T12:15:21.767Z,26.65
2023-04-18T12:16:21.854Z,26.71
2023-04-18T12:17:21.859Z,26.90
2023-04-18T12:18:21.868Z,26.93
2023-04-18T12:19:21.930Z,26.98
2023-04-18T12:20:21.924Z,26.84
2023-04-18T12:21:22.010Z,26.82
2023-04-18T12:22:22.084Z,26.63
2023-04-18T12:23:22.097Z,26.57
2023-04-18T12:24:22.176Z,26.47
2023-04-18T12:25:24.388Z,26.48
2023-04-18T12:26:22.201Z,26.45
2023-04-18T12:27:22.196Z,26.14
2023-04-18T12:28:22.197Z,25.81
2023-04-18T12:29:22.214Z,25.74
2023-04-18T12:30:22.168Z,25.98
2023-04-18T12:31:22.234Z,26.01
2023-04-18T12:32:22.214Z,26.04
2023-04-18T12:33:22.206Z,26.10
2023-04-18T12:34:22.165Z,25.98
2023-04-18T12:35:22.120Z,26.03
2023-04-18T12:36:22.132Z,26.16
2023-04-18T12:37:22.122Z,26.11
2023-04-18T12:38:22.180Z,26.17
2023-04-18T12:39:22.160Z,26.32
2023-04-18T12:40:22.160Z,26.35
2023-04-18T12:41:22.202Z,26.28
2023-04-18T12:42:22.250Z,26.38
2023-04-18T12:43:22.305Z,26.67
2023-04-18T12:44:22.390Z,26.30
2023-04-18T12:45:22.542Z,26.37
2023-04-18T12:46:22.498Z,26.32
2023-04-18T12:47:22.554Z,26.38
2023-04-18T12:48:22.563Z,26.33
2023-04-18T12:49:22.845Z,26.33
2023-04-18T12:50:22.753Z,26.48
2023-04-18T12:51:22.779Z,26.58
2023-04-18T12:52:22.842Z,26.62
2023-04-18T12:53:22.869Z,26.77
2023-04-18T12:54:22.926Z,26.83
2023-04-18T12:55:23.073Z,26.84
2023-04-18T12:56:23.089Z,26.91
2023-04-18T12:57:23.043Z,26.98
2023-04-18T12:58:23.125Z,26.99
2023-04-18T12:59:23.192Z,27.12
2023-04-18T13:00:23.244Z,27.06
2023-04-18T13:01:23.398Z,27.09
2023-04-18T13:02:23.483Z,27.04
2023-04-18T13:03:23.590Z,27.06
2023-04-18T13:04:23.580Z,27.09
2023-04-18T13:05:23.546Z,27.22
2023-04-18T13:06:23.543Z,27.12
2023-04-18T13:07:23.616Z,27.19
2023-04-18T13:08:23.796Z,27.26
2023-04-18T13:09:23.784Z,27.16
2023-04-18T13:10:23.729Z,27.07
2023-04-18T13:11:23.828Z,27.06
2023-04-18T13:12:23.881Z,26.94
2023-04-18T13:13:23.909Z,26.88
2023-04-18T13:14:23.995Z,26.79
2023-04-18T13:15:24.050Z,26.82
2023-04-18T13:16:24.121Z,26.96
2023-04-18T13:17:24.164Z,26.89
2023-04-18T13:18:24.164Z,26.83
2023-04-18T13:19:24.184Z,26.66
2023-04-18T13:20:24.258Z,26.52
2023-04-18T13:21:24.300Z,26.22
2023-04-18T13:22:24.390Z,26.16
2023-04-18T13:23:24.468Z,26.18
2023-04-18T13:24:24.474Z,26.15
2023-04-18T13:25:24.549Z,26.12
2023-04-18T13:26:24.582Z,26.08
2023-04-18T13:27:24.638Z,26.08
2023-04-18T13:28:24.706Z,26.17
2023-04-18T13:29:24.752Z,26.18
2023-04-18T13:30:24.815Z,26.14
2023-04-18T13:31:24.891Z,26.04
2023-04-18T13:32:24.961Z,26.07
2023-04-18T13:33:24.983Z,26.13
2023-04-18T13:34:25.033Z,26.08
2023-04-18T13:35:25.104Z,26.27
2023-04-18T13:36:25.165Z,26.24
2023-04-18T13:37:25.215Z,26.35
2023-04-18T13:38:25.289Z,26.38
2023-04-18T13:39:25.361Z,26.40
2023-04-18T13:40:25.391Z,26.61
2023-04-18T13:41:25.462Z,26.60
2023-04-18T13:42:25.456Z,26.55
2023-04-18T13:43:25.531Z,26.36
2023-04-18T13:44:25.600Z,26.45
2023-04-18T13:45:25.715Z,26.45
2023-04-18T13:46:25.816Z,26.36
2023-04-18T13:47:25.777Z,26.23
2023-04-18T13:48:25.910Z,26.29
2023-04-18T13:49:25.945Z,26.37
2023-04-18T13:50:25.934Z,26.38
2023-04-18T13:51:25.995Z,26.47
2023-04-18T13:52:26.083Z,26.55
2023-04-18T13:53:26.154Z,26.72
2023-04-18T13:54:26.077Z,26.79
2023-04-18T13:55:26.116Z,27.00
2023-04-18T13:56:26.116Z,27.12
2023-04-18T13:57:26.186Z,27.19
2023-04-18T13:58:26.256Z,27.40
2023-04-18T13:59:26.205Z,27.47
2023-04-18T14:00:26.270Z,27.69
2023-04-18T14:01:26.276Z,27.73
2023-04-18T14:02:26.460Z,27.74
2023-04-18T14:03:26.418Z,27.65
2023-04-18T14:04:26.543Z,27.60
2023-04-18T14:05:26.355Z,27.64
2023-04-18T14:06:26.375Z,27.66
2023-04-18T14:07:26.368Z,27.56
2023-04-18T14:08:26.379Z,27.72
2023-04-18T14:09:26.413Z,27.93
2023-04-18T14:10:26.447Z,28.70
2023-04-18T14:11:26.466Z,28.86
2023-04-18T14:12:26.483Z,28.58
2023-04-18T14:13:26.474Z,28.31
2023-04-18T14:14:27.153Z,28.38
2023-04-18T14:15:26.545Z,28.36
2023-04-18T14:16:26.499Z,28.61
2023-04-18T14:17:26.534Z,28.82
2023-04-18T14:18:26.541Z,28.79
2023-04-18T14:19:26.586Z,28.84
2023-04-18T14:20:26.678Z,28.48
2023-04-18T14:21:26.649Z,28.33
2023-04-18T14:22:26.701Z,28.36
2023-04-18T14:23:26.694Z,28.17
2023-04-18T14:24:26.697Z,28.15
2023-04-18T14:25:26.738Z,28.09
2023-04-18T14:26:26.815Z,28.07
2023-04-18T14:27:26.804Z,28.05
2023-04-18T14:28:26.779Z,28.01
2023-04-18T14:29:26.810Z,27.95
2023-04-18T14:30:26.829Z,27.97
2023-04-18T14:31:26.817Z,27.93
2023-04-18T14:32:26.887Z,27.91
2023-04-18T14:33:26.983Z,27.88
2023-04-18T14:34:27.084Z,27.87
2023-04-18T14:35:27.217Z,27.87
2023-04-18T14:36:27.265Z,27.86
2023-04-18T14:37:27.309Z,28.02
2023-04-18T14:38:27.295Z,27.89
2023-04-18T14:39:27.309Z,27.96
2023-04-18T14:40:27.288Z,27.86
2023-04-18T14:41:27.288Z,27.92
2023-04-18T14:42:27.266Z,27.91
2023-04-18T14:43:27.276Z,27.92
2023-04-18T14:44:27.281Z,27.88
2023-04-18T14:45:27.329Z,27.88
2023-04-18T14:46:27.337Z,27.76
2023-04-18T14:47:27.412Z,27.71
2023-04-18T14:48:27.383Z,27.80
2023-04-18T14:49:27.337Z,27.80
2023-04-18T14:50:27.374Z,27.77
2023-04-18T14:51:27.329Z,27.60
2023-04-18T14:52:27.361Z,27.75
2023-04-18T14:53:27.426Z,27.74
2023-04-18T14:54:27.493Z,27.82
2023-04-18T14:55:27.677Z,27.77
2023-04-18T14:56:27.581Z,27.67
2023-04-18T14:57:30.231Z,27.65
2023-04-18T14:58:27.810Z,27.69
2023-04-18T14:59:27.827Z,27.65
2023-04-18T15:00:27.816Z,27.70
2023-04-18T15:01:27.836Z,27.72
2023-04-18T15:02:28.048Z,27.81
2023-04-18T15:03:28.050Z,27.74
2023-04-18T15:04:28.115Z,27.52
2023-04-18T15:05:27.899Z,27.42
2023-04-18T15:06:27.994Z,27.61
2023-04-18T15:07:28.016Z,27.54
2023-04-18T15:08:28.083Z,27.36
2023-04-18T15:09:28.200Z,27.53
2023-04-18T15:10:28.173Z,27.44
2023-04-18T15:11:28.262Z,27.41
2023-04-18T15:12:28.259Z,27.41
2023-04-18T15:13:28.302Z,27.40
2023-04-18T15:14:28.354Z,27.42
2023-04-18T15:15:28.426Z,27.47
2023-04-18T15:16:28.522Z,27.60
2023-04-18T15:17:28.531Z,27.38
2023-04-18T15:18:28.537Z,27.61
2023-04-18T15:19:28.651Z,27.54
2023-04-18T15:20:28.677Z,27.40
2023-04-18T15:21:28.713Z,27.26
2023-04-18T15:22:28.806Z,27.56
2023-04-18T15:23:28.862Z,27.52
2023-04-18T15:24:28.920Z,27.53
2023-04-18T15:25:28.948Z,27.46
2023-04-18T15:26:30.462Z,27.53
2023-04-18T15:27:28.938Z,27.60
2023-04-18T15:28:28.940Z,27.47
2023-04-18T15:29:28.963Z,27.51
2023-04-18T15:30:28.928Z,27.66
2023-04-18T15:31:28.982Z,27.61
2023-04-18T15:32:28.956Z,27.44
2023-04-18T15:33:28.928Z,27.52
2023-04-18T15:34:28.889Z,27.50
2023-04-18T15:35:28.920Z,27.64
2023-04-18T15:36:28.872Z,27.51
2023-04-18T15:37:28.933Z,27.54
2023-04-18T15:38:29.670Z,27.50
2023-04-18T15:39:28.890Z,27.60
2023-04-18T15:40:28.874Z,27.80
2023-04-18T15:41:28.861Z,27.57
2023-04-18T15:42:28.839Z,27.57
2023-04-18T15:43:28.859Z,27.70
2023-04-18T15:44:28.860Z,27.54
2023-04-18T15:45:28.843Z,27.74
2023-04-18T15:46:28.893Z,27.75
2023-04-18T15:47:28.829Z,27.63
2023-04-18T15:48:28.810Z,27.54
2023-04-18T15:49:28.807Z,27.80
2023-04-18T15:50:29.216Z,27.80
2023-04-18T15:51:28.767Z,27.63
2023-04-18T15:52:28.812Z,27.81
2023-04-18T15:53:28.784Z,27.71
2023-04-18T15:54:28.803Z,27.74
2023-04-18T15:55:28.791Z,27.94
2023-04-18T15:56:29.382Z,27.82
2023-04-18T15:57:28.756Z,27.76
2023-04-18T15:58:28.762Z,27.85
2023-04-18T15:59:28.746Z,27.67
2023-04-18T16:00:28.764Z,27.86
2023-04-18T16:01:28.754Z,27.58
2023-04-18T16:02:28.833Z,27.81
2023-04-18T16:03:28.991Z,27.86
2023-04-18T16:04:29.002Z,27.85
2023-04-18T16:05:28.869Z,27.84
2023-04-18T16:06:28.866Z,27.94
2023-04-18T16:07:28.873Z,27.76
2023-04-18T16:08:29.912Z,27.71
2023-04-18T16:09:29.017Z,27.78
2023-04-18T16:10:29.011Z,27.92
2023-04-18T16:11:29.043Z,27.76
2023-04-18T16:12:29.034Z,27.72
2023-04-18T16:13:29.107Z,27.96
2023-04-18T16:14:29.009Z,27.85
2023-04-18T16:15:29.051Z,27.92
2023-04-18T16:16:29.203Z,27.86
2023-04-18T16:17:29.230Z,27.69
2023-04-18T16:18:29.295Z,27.86
2023-04-18T16:19:29.393Z,28.22
2023-04-18T16:20:29.338Z,28.13
2023-04-18T16:21:29.299Z,27.93
2023-04-18T16:22:29.298Z,28.22
2023-04-18T16:23:29.334Z,28.05
2023-04-18T16:24:29.427Z,28.07
2023-04-18T16:25:29.399Z,27.83
2023-04-18T16:26:29.450Z,28.19
2023-04-18T16:27:29.415Z,28.25
2023-04-18T16:28:29.370Z,28.23
2023-04-18T16:29:29.473Z,28.30
2023-04-18T16:30:29.443Z,28.20
2023-04-18T16:31:29.530Z,28.24
2023-04-18T16:32:29.513Z,28.32
2023-04-18T16:33:29.653Z,28.29
2023-04-18T16:34:29.426Z,28.30
2023-04-18T16:35:29.543Z,28.02
2023-04-18T16:36:29.555Z,28.43
2023-04-18T16:37:29.664Z,28.44
2023-04-18T16:38:29.681Z,28.19
2023-04-18T16:39:29.728Z,28.30
2023-04-18T16:40:29.670Z,28.37
2023-04-18T16:41:29.653Z,27.99
2023-04-18T16:42:29.652Z,28.17
2023-04-18T16:43:29.750Z,28.31
2023-04-18T16:44:29.777Z,28.36
2023-04-18T16:45:29.900Z,28.34
2023-04-18T16:46:29.880Z,28.38
2023-04-18T16:47:29.818Z,28.52
2023-04-18T16:48:29.792Z,28.54
2023-04-18T16:49:29.840Z,28.47
2023-04-18T16:50:29.874Z,28.52
2023-04-18T16:51:30.028Z,28.44
2023-04-18T16:52:29.991Z,28.30
2023-04-18T16:53:30.020Z,28.70
2023-04-18T16:54:29.991Z,28.50
2023-04-18T16:55:29.962Z,28.45
2023-04-18T16:56:29.962Z,28.51
2023-04-18T16:57:30.079Z,28.83
2023-04-18T16:58:30.029Z,28.74
2023-04-18T16:59:30.107Z,28.47
2023-04-18T17:00:30.078Z,28.37
